createdAt,value
2023-01-18T00:03:50.283Z,99442.31
2023-01-18T00:08:53.975Z,99440.03
2023-01-18T00:13:54.349Z,99421.47
2023-01-18T00:18:59.439Z,99440.50
2023-01-18T00:23:58.500Z,99433.84
2023-01-18T00:29:00.558Z,99442.00
2023-01-18T00:34:08.897Z,99463.31
2023-01-18T00:39:26.229Z,99439.84
2023-01-18T00:44:27.604Z,99451.94
2023-01-18T00:49:28.708Z,99452.50
2023-01-18T00:54:29.087Z,99459.41
2023-01-18T00:59:27.873Z,99444.50
2023-01-18T01:04:48.059Z,99471.91
2023-01-18T01:09:51.758Z,99440.13
2023-01-18T01:15:13.872Z,99434.59
2023-01-18T01:20:33.621Z,99414.34
2023-01-18T01:25:56.979Z,99434.50
2023-01-18T01:31:03.338Z,99422.22
2023-01-18T01:36:07.408Z,99424.59
2023-01-18T01:41:08.216Z,99426.66
2023-01-18T01:46:23.279Z,99411.66
2023-01-18T01:51:24.701Z,99428.84
2023-01-18T01:56:25.662Z,99433.66
2023-01-18T02:01:28.344Z,99415.22
2023-01-18T02:06:39.949Z,99416.78
2023-01-18T02:11:38.976Z,99421.31
2023-01-18T02:17:19.684Z,99430.41
2023-01-18T02:22:41.989Z,99432.56
2023-01-18T02:27:53.737Z,99401.91
2023-01-18T02:33:01.534Z,99417.44
2023-01-18T02:38:26.286Z,99419.09
2023-01-18T02:43:47.485Z,99404.19
2023-01-18T02:48:52.392Z,99406.41
2023-01-18T02:53:57.714Z,99412.78
2023-01-18T02:59:01.750Z,99410.03
2023-01-18T03:04:32.973Z,99406.19
2023-01-18T03:09:37.012Z,99405.94
2023-01-18T03:14:55.240Z,99406.66
2023-01-18T03:20:08.874Z,99404.38
2023-01-18T03:25:08.916Z,99395.91
2023-01-18T03:30:29.683Z,99401.28
2023-01-18T03:35:29.919Z,99390.00
2023-01-18T03:40:31.713Z,99382.69
2023-01-18T03:45:34.305Z,99387.25
2023-01-18T04:15:45.122Z,99427.75
2023-01-18T04:20:44.588Z,99405.63
2023-01-18T04:25:54.869Z,99440.63
2023-01-18T04:31:01.553Z,99444.75
2023-01-18T04:36:20.289Z,99444.41
2023-01-18T04:41:22.305Z,99479.13
2023-01-18T04:46:22.884Z,99449.59
2023-01-18T04:51:24.228Z,99464.75
2023-01-18T04:56:23.055Z,99438.88
2023-01-18T05:01:22.311Z,99451.88
2023-01-18T05:06:22.797Z,99481.88
2023-01-18T05:11:33.509Z,99490.50
2023-01-18T05:16:35.472Z,99487.13
2023-01-18T05:21:36.926Z,99474.88
2023-01-18T05:26:35.308Z,99479.53
2023-01-18T05:31:36.996Z,99493.97
2023-01-18T05:36:45.417Z,99488.59
2023-01-18T05:41:56.256Z,99498.22
2023-01-18T05:46:55.552Z,99513.75
2023-01-18T05:51:57.538Z,99511.94
2023-01-18T05:57:02.646Z,99509.66
2023-01-18T06:02:04.426Z,99506.69
2023-01-18T06:07:04.867Z,99508.72
2023-01-18T06:12:03.613Z,99526.75
2023-01-18T06:17:06.794Z,99547.47
2023-01-18T06:22:09.533Z,99527.47
2023-01-18T06:27:11.976Z,99557.09
2023-01-18T06:32:12.828Z,99537.34
2023-01-18T06:37:14.781Z,99538.81
2023-01-18T06:42:16.086Z,99551.75
2023-01-18T06:47:16.524Z,99537.25
2023-01-18T06:52:16.164Z,99547.06
2023-01-18T06:57:17.621Z,99558.56
2023-01-18T07:02:16.978Z,99558.19
2023-01-18T07:07:22.568Z,99546.47
2023-01-18T07:12:23.880Z,99558.78
2023-01-18T07:17:22.488Z,99564.88
2023-01-18T07:22:23.249Z,99559.41
2023-01-18T07:27:24.601Z,99561.81
2023-01-18T07:32:25.070Z,99590.13
2023-01-18T07:37:25.192Z,99568.13
2023-01-18T07:42:38.547Z,99586.59
2023-01-18T07:47:46.227Z,99600.56
2023-01-18T07:52:45.670Z,99595.63
2023-01-18T07:57:45.025Z,99599.44
2023-01-18T08:02:55.623Z,99612.94
2023-01-18T08:07:55.374Z,99584.44
2023-01-18T08:12:57.983Z,99580.31
2023-01-18T08:18:03.021Z,99599.81
2023-01-18T08:23:04.361Z,99587.88
2023-01-18T08:28:56.189Z,99608.09
2023-01-18T08:33:39.755Z,99602.84
2023-01-18T08:38:40.488Z,99582.59
2023-01-18T08:43:40.143Z,99600.78
2023-01-18T08:48:41.157Z,99599.66
2023-01-18T08:53:40.824Z,99594.44
2023-01-18T08:58:41.848Z,99605.09
2023-01-18T09:03:45.786Z,99611.03
2023-01-18T09:08:54.067Z,99599.78
2023-01-18T09:14:01.650Z,99581.88
2023-01-18T09:18:59.914Z,99590.47
2023-01-18T09:23:59.834Z,99585.41
2023-01-18T09:28:59.806Z,99613.94
2023-01-18T09:34:18.101Z,99592.22
2023-01-18T09:39:24.121Z,99584.44
2023-01-18T09:44:35.119Z,99618.34
2023-01-18T09:50:06.512Z,99631.13
2023-01-18T09:55:26.508Z,99630.84
2023-01-18T10:00:30.220Z,99602.16
2023-01-18T10:05:32.653Z,99588.47
2023-01-18T10:10:45.483Z,99597.78
2023-01-18T10:15:43.460Z,99591.13
2023-01-18T10:20:46.220Z,99610.34
2023-01-18T10:26:07.832Z,99613.09
2023-01-18T10:31:16.041Z,99597.19
2023-01-18T10:36:22.369Z,99573.94
2023-01-18T10:41:27.957Z,99590.31
2023-01-18T10:46:28.131Z,99587.75
2023-01-18T10:51:37.148Z,99604.44
2023-01-18T10:56:40.099Z,99611.66
2023-01-18T11:01:57.463Z,99635.50
2023-01-18T11:07:01.151Z,99641.09
2023-01-18T11:12:39.693Z,99652.22
2023-01-18T11:18:06.051Z,99637.25
2023-01-18T11:23:12.980Z,99645.03
2023-01-18T11:28:46.119Z,99614.84
2023-01-18T11:34:08.148Z,99643.47
2023-01-18T11:39:35.013Z,99657.56
2023-01-18T11:44:35.408Z,99646.19
2023-01-18T11:49:45.515Z,99664.81
2023-01-18T11:54:55.598Z,99630.94
2023-01-18T11:59:56.954Z,99664.97
2023-01-18T12:05:18.411Z,99667.06
2023-01-18T12:10:24.338Z,99644.50
2023-01-18T12:15:45.661Z,99658.63
2023-01-18T12:20:58.310Z,99656.00
2023-01-18T12:26:12.150Z,99672.53
2023-01-18T12:31:24.795Z,99658.22
2023-01-18T12:36:38.339Z,99680.25
2023-01-18T12:41:54.458Z,99666.44
2023-01-18T12:47:15.255Z,99693.22
2023-01-18T12:52:19.401Z,99654.47
2023-01-18T12:57:24.830Z,99701.97
2023-01-18T13:02:29.440Z,99683.94
2023-01-18T13:07:46.422Z,99677.34
2023-01-18T13:12:44.986Z,99708.13
2023-01-18T13:18:01.965Z,99705.78
2023-01-18T13:23:03.654Z,99740.88
2023-01-18T13:28:18.773Z,99721.81
2023-01-18T13:33:26.615Z,99732.66
2023-01-18T13:38:41.110Z,99715.03
2023-01-18T13:43:46.602Z,99751.13
2023-01-18T13:48:55.749Z,99744.13
2023-01-18T13:53:54.696Z,99777.84
2023-01-18T13:58:56.434Z,99725.75
2023-01-18T14:03:55.740Z,99781.50
2023-01-18T14:09:06.976Z,99794.56
2023-01-18T14:14:25.095Z,99771.06
2023-01-18T14:19:29.194Z,99789.94
2023-01-18T14:24:46.863Z,99803.81
2023-01-18T14:30:06.984Z,99806.00
2023-01-18T14:35:39.260Z,99816.25
2023-01-18T14:40:43.464Z,99813.25
2023-01-18T14:45:51.533Z,99812.09
2023-01-18T14:50:53.850Z,99818.22
2023-01-18T14:56:17.268Z,99816.28
2023-01-18T15:01:34.133Z,99837.22
2023-01-18T15:06:51.320Z,99809.00
2023-01-18T15:11:52.330Z,99818.34
2023-01-18T15:16:53.428Z,99826.31
2023-01-18T15:21:51.748Z,99838.13
2023-01-18T15:27:02.210Z,99827.88
2023-01-18T15:32:08.126Z,99836.47
2023-01-18T15:37:11.039Z,99866.06
2023-01-18T15:42:12.358Z,99873.75
2023-01-18T15:47:28.526Z,99880.19
2023-01-18T15:52:43.972Z,99909.28
2023-01-18T15:58:02.673Z,99889.78
2023-01-18T16:03:03.003Z,99902.59
2023-01-18T16:08:22.727Z,99900.16
2023-01-18T16:14:13.085Z,99951.31
2023-01-18T16:19:41.441Z,99924.03
2023-01-18T16:25:01.907Z,99925.72
2023-01-18T16:30:04.724Z,99916.34
2023-01-18T16:35:18.371Z,99948.44
2023-01-18T16:40:21.124Z,99930.31
2023-01-18T16:45:19.155Z,99939.09
2023-01-18T16:50:18.950Z,99951.78
2023-01-18T16:55:18.298Z,99963.31
2023-01-18T17:00:16.567Z,99961.97
2023-01-18T17:05:17.285Z,99942.38
2023-01-18T17:10:43.367Z,99933.09
2023-01-18T17:15:42.143Z,99952.34
2023-01-18T17:20:40.874Z,99957.28
2023-01-18T17:25:42.324Z,99960.06
2023-01-18T17:30:45.121Z,99977.41
2023-01-18T17:35:52.112Z,99995.94
2023-01-18T17:40:51.266Z,99965.00
2023-01-18T17:45:59.848Z,99992.69
2023-01-18T17:51:01.555Z,100011.91
2023-01-18T17:56:00.256Z,99999.28
2023-01-18T18:01:05.723Z,99970.53
2023-01-18T18:06:04.875Z,100007.66
2023-01-18T18:11:07.294Z,100029.13
2023-01-18T18:16:05.277Z,100018.47
2023-01-18T18:21:05.690Z,100023.31
2023-01-18T18:26:04.765Z,100027.06
2023-01-18T18:31:05.220Z,100007.13
2023-01-18T18:36:02.991Z,100039.34
2023-01-18T18:41:05.330Z,100025.13
2023-01-18T18:46:04.041Z,100021.63
2023-01-18T18:51:04.046Z,100040.97
2023-01-18T18:56:07.051Z,100010.09
2023-01-18T19:01:05.989Z,100052.16
2023-01-18T19:06:04.101Z,100063.63
2023-01-18T19:11:02.532Z,100037.34
2023-01-18T19:16:00.732Z,100054.50
2023-01-18T19:21:36.878Z,100058.09
2023-01-18T19:26:40.184Z,100041.63
2023-01-18T19:31:54.486Z,100077.69
2023-01-18T19:37:08.563Z,100056.84
2023-01-18T19:42:41.107Z,100066.03
2023-01-18T19:53:13.588Z,100061.75
2023-01-18T20:10:15.176Z,100080.78
2023-01-18T20:15:20.718Z,100082.97
2023-01-18T20:20:31.933Z,100055.19
2023-01-18T20:25:45.517Z,100077.38
2023-01-18T20:30:54.407Z,100052.19
2023-01-18T20:35:56.845Z,100059.59
2023-01-18T20:40:56.694Z,100064.09
2023-01-18T20:46:06.689Z,100066.13
2023-01-18T20:51:05.456Z,100060.28
2023-01-18T20:56:14.355Z,100049.78
2023-01-18T21:01:32.610Z,100036.16
2023-01-18T21:06:37.631Z,100041.41
2023-01-18T21:11:42.707Z,100042.63
2023-01-18T21:16:57.941Z,100074.22
2023-01-18T21:21:55.760Z,100060.59
2023-01-18T21:26:59.663Z,100048.09
2023-01-18T21:32:07.378Z,100073.88
2023-01-18T21:37:09.447Z,100076.91
2023-01-18T21:42:34.705Z,100060.50
2023-01-18T21:47:35.574Z,100082.06
2023-01-18T21:52:57.874Z,100047.66
2023-01-18T21:58:29.429Z,100066.06
2023-01-18T22:03:32.454Z,100050.75
2023-01-18T22:08:33.904Z,100058.44
2023-01-18T22:13:34.791Z,100040.03
2023-01-18T22:18:37.633Z,100039.09
2023-01-18T22:23:36.520Z,100032.63
2023-01-18T22:28:34.911Z,100030.41
2023-01-18T22:33:35.118Z,100066.34
2023-01-18T22:38:34.280Z,100029.59
2023-01-18T22:43:36.215Z,100016.31
2023-01-18T22:48:38.139Z,100022.69
2023-01-18T22:53:37.968Z,100009.41
2023-01-18T22:58:38.478Z,99997.66
2023-01-18T23:03:44.703Z,100025.28
2023-01-18T23:08:58.577Z,100012.53
2023-01-18T23:14:36.992Z,100013.94
2023-01-18T23:19:43.361Z,100024.94
2023-01-18T23:24:46.184Z,99992.06
2023-01-18T23:30:14.607Z,99995.94
2023-01-18T23:35:27.926Z,99986.47
2023-01-18T23:46:21.976Z,100008.66
2023-01-18T23:51:46.283Z,100027.78
2023-01-18T23:56:50.229Z,100016.38
